createdAt,value
2023-04-11T00:03:29.843Z,93524.16
2023-04-11T00:08:34.284Z,93515.41
2023-04-11T00:13:38.132Z,93523.53
2023-04-11T00:18:45.171Z,93511.72
2023-04-11T00:23:48.261Z,93512.72
2023-04-11T00:28:52.408Z,93518.78
2023-04-11T00:33:56.438Z,93523.44
2023-04-11T00:39:01.553Z,93520.13
2023-04-11T00:44:06.676Z,93531.78
2023-04-11T00:49:12.442Z,93533.00
2023-04-11T00:54:17.352Z,93519.84
2023-04-11T00:59:21.589Z,93536.09
2023-04-11T01:04:26.461Z,93546.72
2023-04-11T01:09:30.140Z,93544.91
2023-04-11T01:14:33.846Z,93542.22
2023-04-11T01:19:37.332Z,93555.50
2023-04-11T01:24:41.310Z,93552.09
2023-04-11T01:29:45.280Z,93566.00
2023-04-11T01:34:51.038Z,93542.59
2023-04-11T01:39:54.748Z,93549.22
2023-04-11T01:44:59.757Z,93557.03
2023-04-11T01:50:04.406Z,93565.81
2023-04-11T01:55:08.599Z,93560.69
2023-04-11T02:00:14.930Z,93539.63
2023-04-11T02:05:19.195Z,93544.94
2023-04-11T02:10:22.895Z,93546.16
2023-04-11T02:15:26.024Z,93561.50
2023-04-11T02:20:29.721Z,93559.97
2023-04-11T02:25:34.989Z,93539.91
2023-04-11T02:30:38.753Z,93561.06
2023-04-11T02:35:42.505Z,93547.75
2023-04-11T02:40:45.609Z,93566.53
2023-04-11T02:45:49.836Z,93559.31
2023-04-11T02:50:54.567Z,93563.19
2023-04-11T02:55:58.627Z,93565.13
2023-04-11T03:01:02.147Z,93578.53
2023-04-11T03:06:10.023Z,93581.69
2023-04-11T03:11:14.760Z,93579.56
2023-04-11T03:16:20.298Z,93597.59
2023-04-11T03:21:23.423Z,93600.94
2023-04-11T03:26:27.439Z,93601.06
2023-04-11T03:31:36.235Z,93619.69
2023-04-11T03:36:39.421Z,93577.00
2023-04-11T03:41:43.599Z,93615.75
2023-04-11T03:46:48.210Z,93617.97
2023-04-11T03:51:53.167Z,93632.78
2023-04-11T03:56:57.748Z,93630.84
2023-04-11T04:02:02.776Z,93628.41
2023-04-11T04:07:10.230Z,93633.69
2023-04-11T04:12:18.142Z,93643.38
2023-04-11T04:17:52.323Z,93631.06
2023-04-11T04:23:14.649Z,93631.97
2023-04-11T04:28:47.660Z,93647.09
2023-04-11T04:33:59.104Z,93641.44
2023-04-11T04:39:05.417Z,93639.75
2023-04-11T04:44:17.274Z,93647.56
2023-04-11T04:49:28.367Z,93642.38
2023-04-11T04:54:32.200Z,93649.34
2023-04-11T04:59:35.784Z,93649.81
2023-04-11T05:04:46.611Z,93654.34
2023-04-11T05:09:51.431Z,93649.50
2023-04-11T05:15:01.500Z,93661.09
2023-04-11T05:20:09.270Z,93655.63
2023-04-11T05:25:14.101Z,93663.06
2023-04-11T05:30:19.445Z,93653.66
2023-04-11T05:35:25.540Z,93661.28
2023-04-11T05:40:32.100Z,93666.03
2023-04-11T05:45:35.150Z,93663.47
2023-04-11T05:50:39.024Z,93662.84
2023-04-11T05:55:42.964Z,93670.44
2023-04-11T06:00:47.098Z,93671.19
2023-04-11T06:05:50.746Z,93672.63
2023-04-11T06:10:54.611Z,93681.31
2023-04-11T06:15:57.975Z,93675.66
2023-04-11T06:21:02.036Z,93663.44
2023-04-11T06:26:05.932Z,93659.09
2023-04-11T06:31:10.142Z,93655.84
2023-04-11T06:36:14.646Z,93653.13
2023-04-11T06:41:18.391Z,93673.97
2023-04-11T06:46:22.091Z,93656.66
2023-04-11T06:51:26.806Z,93663.16
2023-04-11T06:56:30.321Z,93663.72
2023-04-11T07:01:39.699Z,93657.81
2023-04-11T07:06:43.429Z,93678.00
2023-04-11T07:11:47.287Z,93678.75
2023-04-11T07:16:51.420Z,93677.22
2023-04-11T07:21:55.001Z,93680.81
2023-04-11T07:26:59.185Z,93684.09
2023-04-11T07:32:02.858Z,93685.97
2023-04-11T07:37:06.738Z,93684.84
2023-04-11T07:42:11.321Z,93678.13
2023-04-11T07:47:14.541Z,93691.31
2023-04-11T07:52:18.078Z,93689.41
2023-04-11T07:57:21.284Z,93694.56
2023-04-11T08:02:25.439Z,93690.91
2023-04-11T08:07:29.829Z,93700.53
2023-04-11T08:12:33.317Z,93690.66
2023-04-11T08:17:39.156Z,93692.06
2023-04-11T08:22:44.949Z,93702.44
2023-04-11T08:27:48.741Z,93699.09
2023-04-11T08:32:52.817Z,93693.69
2023-04-11T08:37:56.082Z,93702.09
2023-04-11T08:43:01.031Z,93711.88
2023-04-11T08:48:04.807Z,93708.19
2023-04-11T08:53:09.725Z,93713.38
2023-04-11T08:58:13.264Z,93713.66
2023-04-11T09:03:17.762Z,93705.16
2023-04-11T09:08:21.564Z,93709.09
2023-04-11T09:13:27.650Z,93709.38
2023-04-11T09:18:33.522Z,93718.78
2023-04-11T09:23:38.206Z,93711.84
2023-04-11T09:28:54.091Z,93713.06
2023-04-11T09:34:00.121Z,93704.81
2023-04-11T09:39:21.095Z,93702.66
2023-04-11T09:44:39.968Z,93714.25
2023-04-11T09:49:44.011Z,93705.53
2023-04-11T09:54:49.926Z,93710.69
2023-04-11T09:59:56.297Z,93704.88
2023-04-11T10:05:04.587Z,93694.34
2023-04-11T10:10:09.076Z,93694.22
2023-04-11T10:15:12.756Z,93692.41
2023-04-11T10:20:50.824Z,93692.28
2023-04-11T10:26:00.919Z,93678.16
2023-04-11T10:31:17.687Z,93687.41
2023-04-11T10:36:23.041Z,93675.81
2023-04-11T10:41:29.615Z,93685.78
2023-04-11T10:46:32.966Z,93670.00
2023-04-11T10:51:37.045Z,93675.72
2023-04-11T10:56:41.209Z,93685.44
2023-04-11T11:01:55.499Z,93677.97
2023-04-11T11:07:01.802Z,93683.75
2023-04-11T11:12:25.403Z,93693.66
2023-04-11T11:17:29.121Z,93692.47
2023-04-11T11:22:32.714Z,93693.25
2023-04-11T11:27:36.266Z,93687.00
2023-04-11T11:32:39.563Z,93695.66
2023-04-11T11:37:43.819Z,93676.47
2023-04-11T11:42:47.207Z,93679.66
2023-04-11T11:47:51.660Z,93679.75
2023-04-11T11:52:57.650Z,93666.41
2023-04-11T11:58:03.139Z,93659.75
2023-04-11T12:03:11.025Z,93669.34
2023-04-11T12:08:15.123Z,93648.91
2023-04-11T12:13:27.399Z,93655.63
2023-04-11T12:18:31.690Z,93649.13
2023-04-11T12:23:34.771Z,93642.78
2023-04-11T12:28:38.478Z,93644.84
2023-04-11T12:33:42.411Z,93658.56
2023-04-11T12:38:47.059Z,93644.22
2023-04-11T12:43:51.035Z,93641.81
2023-04-11T12:48:55.716Z,93624.34
2023-04-11T12:53:59.484Z,93646.13
2023-04-11T12:59:03.883Z,93633.53
2023-04-11T13:04:07.203Z,93630.25
2023-04-11T13:09:14.865Z,93645.56
2023-04-11T13:14:18.775Z,93637.34
2023-04-11T13:19:25.267Z,93639.03
2023-04-11T13:24:29.347Z,93639.06
2023-04-11T13:29:32.432Z,93629.38
2023-04-11T13:34:38.604Z,93631.53
2023-04-11T13:39:43.206Z,93614.44
2023-04-11T13:44:47.294Z,93619.00
2023-04-11T13:49:51.306Z,93617.56
2023-04-11T13:54:55.439Z,93626.88
2023-04-11T13:59:59.704Z,93611.59
2023-04-11T14:05:03.231Z,93615.47
2023-04-11T14:10:07.545Z,93616.44
2023-04-11T14:15:12.161Z,93611.59
2023-04-11T14:20:16.310Z,93611.28
2023-04-11T14:25:21.092Z,93609.22
2023-04-11T14:30:24.859Z,93611.03
2023-04-11T14:35:28.323Z,93617.56
2023-04-11T14:40:32.561Z,93620.56
2023-04-11T14:45:36.745Z,93614.06
2023-04-11T14:50:41.063Z,93622.59
2023-04-11T14:55:44.742Z,93601.78
2023-04-11T15:00:48.518Z,93622.88
2023-04-11T15:05:52.077Z,93608.13
2023-04-11T15:10:56.368Z,93609.00
2023-04-11T15:16:01.219Z,93603.59
2023-04-11T15:21:05.112Z,93598.94
2023-04-11T15:26:09.415Z,93593.31
2023-04-11T15:31:14.981Z,93595.97
2023-04-11T15:36:19.205Z,93604.09
2023-04-11T15:41:23.180Z,93610.78
2023-04-11T15:46:27.512Z,93607.72
2023-04-11T15:51:31.321Z,93611.66
2023-04-11T15:56:35.289Z,93610.81
2023-04-11T16:01:40.627Z,93598.88
2023-04-11T16:06:44.838Z,93601.69
2023-04-11T16:11:48.670Z,93602.91
2023-04-11T16:16:53.189Z,93601.69
2023-04-11T16:21:57.627Z,93589.13
2023-04-11T16:27:01.684Z,93598.66
2023-04-11T16:32:04.996Z,93590.09
2023-04-11T16:37:08.560Z,93579.94
2023-04-11T16:42:12.460Z,93580.63
2023-04-11T16:47:15.658Z,93577.16
2023-04-11T16:52:19.726Z,93583.25
2023-04-11T16:57:24.064Z,93578.72
2023-04-11T17:02:28.348Z,93577.63
2023-04-11T17:07:33.582Z,93567.13
2023-04-11T17:12:36.648Z,93569.09
2023-04-11T17:17:41.508Z,93580.06
2023-04-11T17:22:45.348Z,93574.56
2023-04-11T17:27:49.126Z,93572.53
2023-04-11T17:32:55.976Z,93568.16
2023-04-11T17:38:00.914Z,93558.31
2023-04-11T17:43:05.449Z,93577.78
2023-04-11T17:48:09.384Z,93577.97
2023-04-11T17:53:13.213Z,93583.72
2023-04-11T17:58:17.207Z,93581.66
2023-04-11T18:03:21.050Z,93588.19
2023-04-11T18:08:46.712Z,93588.63
2023-04-11T18:13:51.188Z,93593.31
2023-04-11T18:18:54.470Z,93582.75
2023-04-11T18:23:58.564Z,93597.56
2023-04-11T18:29:01.867Z,93607.13
2023-04-11T18:34:07.026Z,93603.13
2023-04-11T18:39:11.063Z,93601.88
2023-04-11T18:44:14.998Z,93597.09
2023-04-11T18:49:19.175Z,93600.59
2023-04-11T18:54:23.604Z,93600.56
2023-04-11T18:59:29.532Z,93601.78
2023-04-11T19:04:36.606Z,93606.22
2023-04-11T19:09:40.830Z,93626.34
2023-04-11T19:14:44.840Z,93642.94
2023-04-11T19:19:48.620Z,93647.78
2023-04-11T19:24:52.811Z,93635.03
2023-04-11T19:29:57.329Z,93637.63
2023-04-11T19:35:02.297Z,93624.28
2023-04-11T19:40:16.905Z,93623.91
2023-04-11T19:45:21.009Z,93649.75
2023-04-11T19:50:24.444Z,93655.56
2023-04-11T19:55:28.145Z,93659.38
2023-04-11T20:00:36.407Z,93655.13
2023-04-11T20:05:40.048Z,93633.69
2023-04-11T20:10:44.452Z,93641.03
2023-04-11T20:15:48.789Z,93636.69
2023-04-11T20:20:53.018Z,93632.69
2023-04-11T20:25:57.103Z,93628.59
2023-04-11T20:31:00.363Z,93591.66
2023-04-11T20:36:04.361Z,93595.25
2023-04-11T20:41:09.014Z,93596.44
2023-04-11T20:46:13.947Z,93591.16
2023-04-11T20:51:18.536Z,93588.84
2023-04-11T20:56:23.929Z,93586.53
2023-04-11T21:01:32.799Z,93590.13
2023-04-11T21:06:36.698Z,93592.22
2023-04-11T21:11:41.398Z,93615.66
2023-04-11T21:16:44.885Z,93592.41
2023-04-11T21:21:48.826Z,93608.28
2023-04-11T21:26:51.874Z,93611.53
2023-04-11T21:31:56.067Z,93617.31
2023-04-11T21:36:59.085Z,93599.53
2023-04-11T21:42:03.157Z,93592.66
2023-04-11T21:47:06.807Z,93586.28
2023-04-11T21:52:10.624Z,93589.19
2023-04-11T21:57:14.194Z,93581.31
2023-04-11T22:02:18.641Z,93585.25
2023-04-11T22:07:25.777Z,93567.28
2023-04-11T22:12:29.346Z,93572.56
2023-04-11T22:17:33.406Z,93574.34
2023-04-11T22:22:36.668Z,93567.47
2023-04-11T22:27:40.380Z,93552.38
2023-04-11T22:32:43.562Z,93538.56
2023-04-11T22:37:47.318Z,93549.59
2023-04-11T22:42:52.247Z,93539.38
2023-04-11T22:47:57.044Z,93527.75
2023-04-11T22:53:03.556Z,93528.28
2023-04-11T22:58:08.057Z,93518.19
2023-04-11T23:03:12.652Z,93519.69
2023-04-11T23:08:16.464Z,93511.38
2023-04-11T23:13:20.141Z,93513.59
2023-04-11T23:18:23.762Z,93523.19
2023-04-11T23:23:28.479Z,93517.44
2023-04-11T23:28:32.736Z,93505.41
2023-04-11T23:33:36.168Z,93486.03
2023-04-11T23:38:40.067Z,93472.19
2023-04-11T23:43:43.628Z,93469.06
2023-04-11T23:48:47.415Z,93471.25
2023-04-11T23:53:51.015Z,93472.50
2023-04-11T23:58:54.689Z,93448.28
